Time;durP1;ratioP1;P1;durP2;ratioP2;P2;SDS_P1;SDS_P2;PMS_P1;PMS_P2;Temp;Humidity;BMP_temperature;BMP_pressure;BME280_temperature;BME280_humidity;BME280_pressure;Samples;Min_cycle;Max_cycle;Signal;HPM_P1;HPM_P2
2022/03/11 00:01:53;;;;;;;15.87;5.13;;;2.50;62.40;;;;;;5014519;28;20165;-63
2022/03/11 00:04:19;;;;;;;10.93;5.27;;;2.40;62.10;;;;;;5014647;28;20278;-64
2022/03/11 00:06:45;;;;;;;7.33;4.50;;;2.50;62.20;;;;;;5015291;28;20586;-65
2022/03/11 00:09:12;;;;;;;11.37;5.67;;;2.40;62.30;;;;;;5014667;28;20200;-64
2022/03/11 00:11:38;;;;;;;9.60;4.50;;;2.40;62.20;;;;;;5014862;28;20154;-64
2022/03/11 00:14:03;;;;;;;8.60;4.63;;;2.30;62.00;;;;;;5014736;28;20181;-64
2022/03/11 00:16:29;;;;;;;8.13;4.97;;;2.40;62.00;;;;;;5015042;28;20244;-64
2022/03/11 00:18:54;;;;;;;13.33;5.20;;;2.30;62.00;;;;;;5014519;28;20296;-64
2022/03/11 00:21:21;;;;;;;7.33;4.73;;;2.30;62.20;;;;;;5014361;28;20315;-65
2022/03/11 00:23:46;;;;;;;7.77;5.00;;;2.30;62.00;;;;;;5014129;28;20198;-65
2022/03/11 00:26:12;;;;;;;10.33;5.37;;;2.30;62.10;;;;;;5008998;28;20194;-66
2022/03/11 00:28:38;;;;;;;7.93;4.77;;;2.30;62.30;;;;;;4979459;28;20321;-65
2022/03/11 00:31:07;;;;;;;10.27;5.07;;;2.20;62.40;;;;;;5000251;28;20185;-66
2022/03/11 00:33:33;;;;;;;9.20;4.77;;;2.30;62.60;;;;;;5014513;28;20157;-64
2022/03/11 00:35:59;;;;;;;9.53;4.87;;;2.20;62.40;;;;;;5013881;28;20181;-65
2022/03/11 00:38:28;;;;;;;9.00;4.77;;;2.20;62.50;;;;;;5014243;28;20166;-65
2022/03/11 00:40:56;;;;;;;7.20;4.20;;;2.20;63.30;;;;;;5014389;28;20166;-66
2022/03/11 00:43:28;;;;;;;8.27;5.10;;;2.10;62.70;;;;;;5013886;28;20590;-65
2022/03/11 00:45:54;;;;;;;9.30;4.80;;;2.10;62.80;;;;;;5014269;28;20162;-65
2022/03/11 00:48:21;;;;;;;10.10;4.67;;;2.10;62.50;;;;;;5014117;28;20648;-64
2022/03/11 00:50:47;;;;;;;8.83;5.13;;;2.00;62.00;;;;;;5009619;28;20290;-64
2022/03/11 00:53:13;;;;;;;6.43;4.20;;;2.00;62.00;;;;;;5013736;28;20158;-64
2022/03/11 00:55:39;;;;;;;16.50;4.50;;;2.00;62.30;;;;;;5013490;28;20168;-65
2022/03/11 00:58:05;;;;;;;9.57;5.00;;;2.00;62.30;;;;;;5012945;28;20227;-64
2022/03/11 01:00:31;;;;;;;8.57;5.13;;;2.00;62.20;;;;;;5013727;28;20223;-66
2022/03/11 01:02:57;;;;;;;13.30;4.43;;;2.00;62.40;;;;;;5013996;28;20605;-64
2022/03/11 01:05:22;;;;;;;8.07;4.77;;;1.90;62.40;;;;;;5013132;28;20166;-65
2022/03/11 01:07:49;;;;;;;9.80;5.20;;;1.90;62.30;;;;;;5012915;28;20173;-63
2022/03/11 01:10:15;;;;;;;8.63;4.93;;;1.90;62.60;;;;;;5013673;28;20582;-64
2022/03/11 01:12:40;;;;;;;9.90;5.00;;;1.90;62.30;;;;;;5013466;28;20169;-64
2022/03/11 01:15:07;;;;;;;11.67;4.50;;;1.90;62.10;;;;;;5013720;28;20162;-66
2022/03/11 01:17:33;;;;;;;7.27;5.03;;;1.90;61.90;;;;;;5014293;28;20569;-66
2022/03/11 01:19:59;;;;;;;7.87;4.50;;;1.90;62.00;;;;;;5013250;28;20197;-64
2022/03/11 01:22:25;;;;;;;7.20;4.70;;;1.90;61.70;;;;;;5013036;28;20505;-64
2022/03/11 01:24:50;;;;;;;7.50;4.40;;;1.80;61.90;;;;;;5013707;28;20173;-64
2022/03/11 01:27:16;;;;;;;8.43;4.63;;;1.80;62.40;;;;;;5013260;28;20264;-65
2022/03/11 01:29:42;;;;;;;8.30;4.27;;;1.80;62.00;;;;;;5013669;28;20256;-64
2022/03/11 01:32:08;;;;;;;8.13;4.20;;;1.80;61.70;;;;;;5012558;28;20177;-65
2022/03/11 01:34:33;;;;;;;9.30;4.43;;;1.70;61.60;;;;;;5012639;28;20184;-63
2022/03/11 01:36:59;;;;;;;9.13;4.60;;;1.70;61.90;;;;;;5013697;28;20158;-66
2022/03/11 01:39:24;;;;;;;9.13;4.67;;;1.70;61.90;;;;;;5012793;28;20233;-63
2022/03/11 01:41:50;;;;;;;7.60;4.33;;;1.60;61.60;;;;;;5014073;28;20172;-65
2022/03/11 01:44:16;;;;;;;8.17;4.07;;;1.60;61.50;;;;;;5014072;28;20165;-64
2022/03/11 01:46:41;;;;;;;8.17;4.73;;;1.60;61.60;;;;;;5013980;28;20181;-65
2022/03/11 01:49:09;;;;;;;7.30;4.20;;;1.60;61.70;;;;;;5017407;28;20500;-65
2022/03/11 01:51:38;;;;;;;9.53;4.53;;;1.60;61.60;;;;;;5017391;28;20175;-65
2022/03/11 01:54:04;;;;;;;11.43;4.40;;;1.60;61.50;;;;;;5018976;28;20229;-64
2022/03/11 01:56:31;;;;;;;8.50;4.43;;;1.60;61.00;;;;;;5018881;28;20205;-64
2022/03/11 01:58:57;;;;;;;9.43;5.23;;;1.60;60.90;;;;;;5017005;28;20209;-66
2022/03/11 02:01:24;;;;;;;7.67;4.60;;;1.50;61.20;;;;;;5018254;28;20172;-64
2022/03/11 02:03:50;;;;;;;9.60;4.90;;;1.50;60.10;;;;;;5018472;28;20162;-66
2022/03/11 02:06:16;;;;;;;6.60;4.30;;;1.50;59.90;;;;;;5018469;28;20651;-64
2022/03/11 02:08:42;;;;;;;10.23;4.90;;;1.50;59.80;;;;;;5019368;28;20632;-64
2022/03/11 02:11:09;;;;;;;10.83;4.70;;;1.50;59.90;;;;;;5021743;28;20170;-64
2022/03/11 02:13:45;;;;;;;7.47;4.33;;;1.40;60.00;;;;;;5022025;28;20539;-64
2022/03/11 02:16:22;;;;;;;8.63;4.93;;;1.40;60.00;;;;;;5016747;28;20173;-64
2022/03/11 02:18:48;;;;;;;8.97;4.90;;;1.40;59.80;;;;;;5017375;28;20199;-65
2022/03/11 02:21:15;;;;;;;8.53;4.60;;;1.40;59.80;;;;;;5017584;28;20493;-66
2022/03/11 02:23:53;;;;;;;7.27;4.40;;;1.40;59.90;;;;;;5017107;28;20185;-65
2022/03/11 02:26:21;;;;;;;7.30;4.63;;;1.30;60.00;;;;;;5017258;28;20174;-64
2022/03/11 02:28:48;;;;;;;12.60;5.30;;;1.40;60.00;;;;;;5016441;28;20233;-65
2022/03/11 02:31:14;;;;;;;9.07;4.60;;;1.40;59.80;;;;;;5017102;28;20202;-63
2022/03/11 02:33:40;;;;;;;8.17;4.70;;;1.30;59.70;;;;;;5016547;28;20257;-63
2022/03/11 02:36:06;;;;;;;9.43;4.70;;;1.30;59.80;;;;;;5015918;28;20181;-63
2022/03/11 02:38:32;;;;;;;8.43;4.20;;;1.30;59.60;;;;;;5016799;28;20236;-63
2022/03/11 02:40:58;;;;;;;7.60;4.83;;;1.30;59.60;;;;;;5014868;28;20620;-64
2022/03/11 02:43:24;;;;;;;8.80;4.47;;;1.30;59.80;;;;;;5016580;28;20174;-64
2022/03/11 02:45:51;;;;;;;9.93;4.57;;;1.30;59.70;;;;;;5016366;28;20208;-63
2022/03/11 02:48:17;;;;;;;9.87;4.97;;;1.20;59.50;;;;;;5016481;28;20326;-64
2022/03/11 02:50:43;;;;;;;9.13;4.57;;;1.20;59.60;;;;;;5016461;28;20176;-65
2022/03/11 02:53:09;;;;;;;7.30;4.23;;;1.20;59.90;;;;;;5016707;28;20268;-64
2022/03/11 02:55:35;;;;;;;10.23;5.20;;;1.20;59.70;;;;;;5016421;28;20172;-63
2022/03/11 02:58:00;;;;;;;7.30;4.17;;;1.10;59.80;;;;;;5016322;28;20172;-65
2022/03/11 03:00:26;;;;;;;9.53;4.50;;;1.10;60.00;;;;;;5016352;28;20205;-63
2022/03/11 03:02:52;;;;;;;10.00;5.27;;;1.10;60.00;;;;;;5015928;28;20162;-64
2022/03/11 03:05:18;;;;;;;8.70;4.53;;;1.10;60.00;;;;;;5016086;28;20174;-65
2022/03/11 03:07:43;;;;;;;8.67;4.80;;;1.10;59.80;;;;;;5016350;28;20173;-63
2022/03/11 03:10:11;;;;;;;7.63;4.67;;;1.10;59.60;;;;;;5016068;28;20505;-64
2022/03/11 03:12:37;;;;;;;9.07;4.40;;;1.10;59.40;;;;;;5015708;28;20150;-64
2022/03/11 03:15:03;;;;;;;7.57;4.37;;;1.10;59.50;;;;;;5017563;28;20228;-64
2022/03/11 03:17:29;;;;;;;10.70;4.37;;;1.00;59.50;;;;;;5018552;28;20570;-64
2022/03/11 03:19:54;;;;;;;12.07;5.70;;;1.10;59.30;;;;;;5020421;28;20212;-63
2022/03/11 03:22:20;;;;;;;9.07;4.83;;;1.10;59.10;;;;;;5019868;28;20161;-64
2022/03/11 03:24:47;;;;;;;7.67;4.40;;;1.00;58.80;;;;;;5017424;28;20251;-63
2022/03/11 03:27:12;;;;;;;8.30;4.83;;;1.00;58.80;;;;;;5017459;28;20237;-64
2022/03/11 03:29:38;;;;;;;7.67;4.60;;;1.00;58.50;;;;;;5017176;28;20166;-63
2022/03/11 03:32:04;;;;;;;9.87;4.93;;;1.00;58.20;;;;;;5016818;28;20220;-64
2022/03/11 03:34:32;;;;;;;9.17;4.83;;;1.00;58.20;;;;;;5016844;28;20174;-64
2022/03/11 03:36:59;;;;;;;8.50;4.40;;;1.00;58.20;;;;;;5017840;28;20166;-66
2022/03/11 03:39:26;;;;;;;9.97;5.67;;;1.00;58.00;;;;;;5016261;28;20201;-64
2022/03/11 03:41:55;;;;;;;9.20;5.00;;;1.00;57.90;;;;;;5015730;28;20170;-65
2022/03/11 03:44:22;;;;;;;8.27;4.70;;;0.90;57.80;;;;;;5015295;28;20165;-63
2022/03/11 03:46:48;;;;;;;8.13;4.57;;;0.90;57.80;;;;;;5015176;28;20249;-65
2022/03/11 03:49:14;;;;;;;7.97;4.43;;;1.00;57.80;;;;;;5015617;28;20542;-65
2022/03/11 03:51:39;;;;;;;8.03;4.50;;;1.00;57.60;;;;;;5015164;28;20246;-62
2022/03/11 03:54:06;;;;;;;8.70;4.53;;;0.90;57.60;;;;;;5011325;28;20268;-64
2022/03/11 03:56:33;;;;;;;10.03;4.10;;;0.90;57.40;;;;;;5014705;28;20168;-63
2022/03/11 03:59:04;;;;;;;8.73;4.40;;;0.90;57.20;;;;;;5015128;28;20205;-65
2022/03/11 04:01:37;;;;;;;9.57;4.70;;;0.90;57.20;;;;;;5015118;28;20158;-63
2022/03/11 04:04:04;;;;;;;7.27;4.10;;;0.80;57.30;;;;;;5015134;28;20165;-64
2022/03/11 04:06:30;;;;;;;9.10;4.13;;;0.80;57.50;;;;;;5014608;28;20743;-64
2022/03/11 04:08:57;;;;;;;10.07;5.33;;;0.80;57.60;;;;;;4997338;28;20174;-64
2022/03/11 04:11:27;;;;;;;12.70;5.20;;;0.70;57.60;;;;;;5015203;28;20220;-64
2022/03/11 04:13:54;;;;;;;7.97;4.57;;;0.80;57.70;;;;;;5014850;28;20227;-65
2022/03/11 04:16:20;;;;;;;9.80;4.90;;;0.70;57.60;;;;;;5014508;28;20162;-63
2022/03/11 04:18:46;;;;;;;10.43;5.30;;;0.70;57.30;;;;;;5014898;28;20455;-64
2022/03/11 04:21:13;;;;;;;7.73;4.60;;;0.70;57.10;;;;;;5014466;28;20185;-64
2022/03/11 04:23:39;;;;;;;8.27;4.40;;;0.70;57.10;;;;;;5014760;28;20173;-63
2022/03/11 04:26:05;;;;;;;8.17;4.57;;;0.70;56.70;;;;;;5014833;28;20170;-63
2022/03/11 04:28:31;;;;;;;7.63;4.60;;;0.70;56.60;;;;;;5013776;28;20735;-64
2022/03/11 04:30:56;;;;;;;9.00;4.77;;;0.70;56.50;;;;;;5014839;28;20260;-64
2022/03/11 04:33:22;;;;;;;11.23;5.27;;;0.70;56.40;;;;;;5014770;28;20170;-64
2022/03/11 04:35:48;;;;;;;8.67;4.10;;;0.80;56.40;;;;;;5014547;28;20169;-63
2022/03/11 04:38:14;;;;;;;6.80;4.53;;;0.70;56.30;;;;;;5014849;28;20181;-64
2022/03/11 04:40:40;;;;;;;9.10;4.50;;;0.70;56.10;;;;;;5014929;28;20198;-64
2022/03/11 04:43:05;;;;;;;8.23;4.47;;;0.60;56.00;;;;;;5015230;28;20487;-63
2022/03/11 04:45:31;;;;;;;9.07;5.03;;;0.60;56.00;;;;;;5016464;28;20185;-64
2022/03/11 04:47:57;;;;;;;7.43;4.77;;;0.60;56.00;;;;;;5020596;28;20195;-64
2022/03/11 04:50:22;;;;;;;14.50;4.93;;;0.60;56.10;;;;;;5023744;28;20177;-64
2022/03/11 04:52:48;;;;;;;13.07;4.90;;;0.60;56.00;;;;;;5023039;28;20177;-64
2022/03/11 04:55:16;;;;;;;10.13;4.70;;;0.60;56.00;;;;;;5023768;28;20168;-65
2022/03/11 04:57:42;;;;;;;8.03;4.40;;;0.60;56.10;;;;;;5023902;28;20181;-64
2022/03/11 05:00:08;;;;;;;7.67;4.43;;;0.60;56.00;;;;;;5017095;28;20205;-65
2022/03/11 05:02:34;;;;;;;7.20;4.33;;;0.50;56.00;;;;;;5011858;28;20218;-64
2022/03/11 05:05:09;;;;;;;7.37;4.83;;;0.50;56.10;;;;;;4996849;28;20485;-64
2022/03/11 05:07:35;;;;;;;7.33;4.40;;;0.50;56.30;;;;;;5013716;28;20164;-63
2022/03/11 05:10:01;;;;;;;7.83;4.60;;;0.50;56.60;;;;;;5013641;28;20172;-66
2022/03/11 05:12:27;;;;;;;6.83;4.23;;;0.50;56.40;;;;;;5013926;28;20158;-65
2022/03/11 05:14:53;;;;;;;8.37;4.77;;;0.50;56.40;;;;;;5013687;28;20189;-63
2022/03/11 05:17:19;;;;;;;9.87;4.80;;;0.50;56.60;;;;;;5013944;28;20200;-64
2022/03/11 05:19:45;;;;;;;9.63;4.80;;;0.40;56.80;;;;;;5013727;28;20220;-63
2022/03/11 05:22:11;;;;;;;12.23;4.80;;;0.40;57.20;;;;;;5013526;28;20154;-63
2022/03/11 05:24:38;;;;;;;9.00;4.37;;;0.40;57.30;;;;;;5014032;28;20185;-65
2022/03/11 05:27:04;;;;;;;9.47;4.60;;;0.40;57.20;;;;;;5013285;28;20229;-63
2022/03/11 05:29:34;;;;;;;8.33;4.87;;;0.40;57.20;;;;;;5013386;28;20196;-65
2022/03/11 05:32:00;;;;;;;8.93;4.37;;;0.40;57.60;;;;;;5013957;28;20477;-63
2022/03/11 05:34:26;;;;;;;9.83;5.13;;;0.30;57.60;;;;;;5013857;28;20170;-63
2022/03/11 05:36:51;;;;;;;7.77;4.80;;;0.40;57.90;;;;;;5013944;28;20176;-65
2022/03/11 05:39:17;;;;;;;8.73;5.37;;;0.40;57.90;;;;;;5013086;28;20212;-64
2022/03/11 05:41:44;;;;;;;9.07;4.87;;;0.30;57.80;;;;;;5013932;28;20205;-66
2022/03/11 05:44:10;;;;;;;6.17;4.00;;;0.30;57.90;;;;;;5013577;28;20165;-64
2022/03/11 05:46:35;;;;;;;8.53;4.53;;;0.30;58.20;;;;;;5000513;28;20177;-63
2022/03/11 05:49:01;;;;;;;9.67;4.00;;;0.40;58.40;;;;;;5017358;28;20641;-64
2022/03/11 05:51:27;;;;;;;8.33;5.07;;;0.30;58.30;;;;;;5017020;28;20166;-65
2022/03/11 05:53:52;;;;;;;8.67;4.97;;;0.30;58.60;;;;;;5017409;28;20617;-64
2022/03/11 05:56:18;;;;;;;13.50;4.60;;;0.30;58.60;;;;;;5017595;28;20165;-63
2022/03/11 05:58:43;;;;;;;9.37;4.70;;;0.30;59.00;;;;;;5017235;28;20212;-64
2022/03/11 06:01:09;;;;;;;7.83;4.97;;;0.40;59.10;;;;;;5017846;28;20158;-64
2022/03/11 06:03:35;;;;;;;15.70;5.03;;;0.30;59.00;;;;;;5018228;28;20185;-63
2022/03/11 06:06:01;;;;;;;6.93;4.97;;;0.30;59.30;;;;;;5019111;28;20183;-62
2022/03/11 06:08:26;;;;;;;7.73;4.90;;;0.30;59.10;;;;;;5017332;28;20166;-64
2022/03/11 06:10:52;;;;;;;10.20;5.07;;;0.40;59.10;;;;;;5018030;28;20539;-63
2022/03/11 06:13:17;;;;;;;11.10;5.07;;;0.40;59.30;;;;;;5017586;28;20262;-64
2022/03/11 06:15:43;;;;;;;9.67;4.97;;;0.40;59.40;;;;;;5018259;28;20501;-64
2022/03/11 06:18:12;;;;;;;7.23;4.83;;;0.40;59.10;;;;;;5017589;28;20167;-64
2022/03/11 06:20:38;;;;;;;7.93;4.40;;;0.50;59.10;;;;;;5017245;28;20201;-63
2022/03/11 06:23:03;;;;;;;9.17;4.67;;;0.50;59.20;;;;;;5017286;28;20165;-63
2022/03/11 06:25:29;;;;;;;11.20;5.53;;;0.50;59.20;;;;;;5017338;28;20567;-64
2022/03/11 06:27:55;;;;;;;10.83;4.67;;;0.60;59.00;;;;;;5017636;28;20264;-63
2022/03/11 06:30:20;;;;;;;7.80;4.50;;;0.60;59.20;;;;;;5016663;28;20254;-63
2022/03/11 06:32:48;;;;;;;8.93;4.73;;;0.60;59.10;;;;;;5016465;28;20176;-63
2022/03/11 06:35:15;;;;;;;8.37;4.73;;;0.60;59.10;;;;;;5016481;28;20597;-63
2022/03/11 06:37:42;;;;;;;9.83;5.63;;;0.60;59.00;;;;;;5016950;28;20597;-63
2022/03/11 06:40:08;;;;;;;10.73;5.07;;;0.70;59.30;;;;;;5016643;28;20206;-63
2022/03/11 06:42:35;;;;;;;7.53;4.70;;;0.70;59.10;;;;;;5016594;28;20173;-67
2022/03/11 06:45:01;;;;;;;11.00;5.03;;;0.80;58.80;;;;;;4999288;28;20184;-63
2022/03/11 06:47:26;;;;;;;10.50;4.43;;;0.70;58.80;;;;;;4998690;28;20236;-63
2022/03/11 06:49:52;;;;;;;8.07;5.00;;;0.90;59.10;;;;;;5016459;28;20161;-66
2022/03/11 06:52:17;;;;;;;8.57;4.80;;;0.90;59.20;;;;;;5016295;28;20630;-63
2022/03/11 06:54:43;;;;;;;9.13;4.70;;;1.00;59.20;;;;;;5016429;28;20177;-64
2022/03/11 06:57:09;;;;;;;8.07;5.13;;;1.10;58.90;;;;;;5016351;28;20197;-64
2022/03/11 06:59:34;;;;;;;8.93;5.27;;;1.00;58.80;;;;;;5016204;28;20240;-64
2022/03/11 07:02:00;;;;;;;8.67;4.83;;;1.10;59.00;;;;;;5016204;28;20510;-64
2022/03/11 07:04:25;;;;;;;7.23;4.77;;;1.30;59.00;;;;;;5016228;28;20177;-64
2022/03/11 07:06:52;;;;;;;10.23;5.73;;;1.10;58.80;;;;;;5016108;28;20164;-64
2022/03/11 07:09:18;;;;;;;8.93;5.13;;;1.20;58.90;;;;;;5016051;28;20279;-63
2022/03/11 07:11:46;;;;;;;13.30;5.00;;;1.20;58.60;;;;;;5016185;28;20193;-65
2022/03/11 07:14:12;;;;;;;8.97;4.53;;;1.20;58.70;;;;;;5016352;28;20183;-63
2022/03/11 07:16:37;;;;;;;15.43;5.30;;;1.30;58.70;;;;;;5015627;28;20177;-64
2022/03/11 07:19:03;;;;;;;8.40;4.80;;;1.30;58.50;;;;;;5015642;28;20194;-64
2022/03/11 07:21:29;;;;;;;9.27;4.90;;;1.40;58.50;;;;;;4998538;28;20182;-64
2022/03/11 07:23:56;;;;;;;8.67;4.90;;;1.40;58.30;;;;;;4997665;28;20199;-63
2022/03/11 07:26:22;;;;;;;7.77;4.30;;;1.60;58.60;;;;;;4998601;28;20182;-64
2022/03/11 07:28:48;;;;;;;13.57;6.03;;;1.60;58.70;;;;;;5015412;28;20251;-64
2022/03/11 07:31:14;;;;;;;7.80;4.80;;;1.60;59.00;;;;;;5015674;28;20254;-64
2022/03/11 07:33:39;;;;;;;8.43;4.80;;;1.80;58.50;;;;;;5015452;28;20241;-63
2022/03/11 07:36:05;;;;;;;9.33;4.97;;;1.80;58.00;;;;;;5015535;28;20165;-64
2022/03/11 07:38:31;;;;;;;14.00;4.73;;;1.90;58.00;;;;;;5015870;28;20157;-64
2022/03/11 07:40:59;;;;;;;7.50;4.47;;;1.90;57.90;;;;;;5016432;28;20173;-64
2022/03/11 07:43:26;;;;;;;8.77;4.73;;;2.00;58.00;;;;;;4998983;28;20257;-64
2022/03/11 07:45:52;;;;;;;7.17;4.40;;;2.00;57.70;;;;;;5015227;28;20174;-67
2022/03/11 07:48:18;;;;;;;6.93;4.23;;;2.10;57.90;;;;;;5015066;28;20713;-63
2022/03/11 07:50:45;;;;;;;9.57;4.97;;;2.20;57.70;;;;;;5014866;28;20602;-64
2022/03/11 07:53:11;;;;;;;8.47;4.90;;;2.10;57.60;;;;;;5015865;28;20253;-64
2022/03/11 07:55:37;;;;;;;9.37;5.47;;;2.10;57.60;;;;;;5015001;28;20173;-64
2022/03/11 07:58:03;;;;;;;9.53;5.17;;;2.30;57.60;;;;;;5014860;28;20169;-63
2022/03/11 08:00:28;;;;;;;7.93;4.87;;;2.40;57.40;;;;;;5014227;28;20205;-64
2022/03/11 08:02:54;;;;;;;12.03;4.83;;;2.30;57.30;;;;;;4997748;28;20178;-64
2022/03/11 08:05:20;;;;;;;8.60;5.33;;;2.40;57.40;;;;;;5014835;28;20668;-63
2022/03/11 08:07:49;;;;;;;11.73;4.87;;;2.50;57.40;;;;;;5014024;28;20166;-63
2022/03/11 08:10:19;;;;;;;12.97;4.87;;;2.60;56.90;;;;;;5014438;28;20193;-64
2022/03/11 08:12:45;;;;;;;7.77;4.33;;;2.70;56.90;;;;;;5016249;28;20165;-64
2022/03/11 08:15:13;;;;;;;8.13;4.70;;;2.70;57.00;;;;;;5015725;28;20181;-65
2022/03/11 08:17:40;;;;;;;12.47;4.90;;;2.70;57.00;;;;;;5014563;28;20169;-63
2022/03/11 08:20:07;;;;;;;9.33;4.77;;;2.90;57.00;;;;;;5014255;28;20232;-64
2022/03/11 08:22:34;;;;;;;7.40;4.53;;;2.80;56.40;;;;;;5014512;28;20173;-63
2022/03/11 08:25:00;;;;;;;10.17;5.37;;;3.00;56.60;;;;;;5014720;28;20185;-64
2022/03/11 08:27:25;;;;;;;7.20;4.30;;;3.20;56.60;;;;;;5013969;28;20742;-65
2022/03/11 08:29:51;;;;;;;5.30;3.57;;;3.20;56.30;;;;;;4996493;28;20174;-66
2022/03/11 08:32:17;;;;;;;6.33;3.80;;;3.10;56.00;;;;;;5014055;28;20165;-64
2022/03/11 08:34:42;;;;;;;7.93;3.73;;;3.20;56.00;;;;;;5013731;28;20162;-65
2022/03/11 08:37:08;;;;;;;8.13;4.50;;;3.10;55.90;;;;;;5013589;28;20249;-65
2022/03/11 08:39:34;;;;;;;24.90;5.20;;;3.30;56.00;;;;;;5013778;28;20581;-64
2022/03/11 08:41:59;;;;;;;9.03;4.50;;;3.20;55.80;;;;;;5014176;28;20170;-66
2022/03/11 08:44:25;;;;;;;7.30;4.90;;;3.60;55.90;;;;;;5013675;28;20249;-64
2022/03/11 08:46:51;;;;;;;9.53;4.47;;;3.60;55.50;;;;;;5013718;28;20166;-62
2022/03/11 08:49:16;;;;;;;6.07;3.50;;;3.50;55.00;;;;;;5013571;28;20368;-65
2022/03/11 08:51:43;;;;;;;5.60;3.73;;;3.50;55.10;;;;;;5013954;28;20249;-64
2022/03/11 08:54:09;;;;;;;4.63;3.13;;;3.60;55.00;;;;;;4996056;28;20174;-67
2022/03/11 08:56:34;;;;;;;5.47;3.73;;;3.60;54.70;;;;;;5013553;28;20169;-63
2022/03/11 08:59:00;;;;;;;5.53;3.33;;;3.70;54.70;;;;;;5013393;28;20338;-63
2022/03/11 09:01:26;;;;;;;8.23;4.47;;;4.00;54.90;;;;;;5013639;28;20172;-62
2022/03/11 09:03:52;;;;;;;5.17;2.90;;;4.00;54.40;;;;;;5013762;28;20583;-63
2022/03/11 09:06:17;;;;;;;7.83;4.03;;;4.20;54.30;;;;;;5014080;28;20171;-65
2022/03/11 09:08:44;;;;;;;6.13;4.20;;;4.00;53.30;;;;;;4996915;28;20185;-64
2022/03/11 09:11:10;;;;;;;11.50;4.83;;;4.10;53.20;;;;;;5013972;28;20189;-63
2022/03/11 09:13:36;;;;;;;6.37;4.13;;;4.20;52.70;;;;;;5013926;28;20166;-64
2022/03/11 09:16:02;;;;;;;203.77;81.53;;;4.20;52.20;;;;;;5015871;28;20188;-65
2022/03/11 09:18:27;;;;;;;8.20;5.57;;;4.50;52.50;;;;;;5019678;28;20178;-69
2022/03/11 09:20:55;;;;;;;5.20;4.10;;;4.50;51.50;;;;;;5023695;28;20183;-65
2022/03/11 09:23:21;;;;;;;7.20;3.17;;;4.50;51.00;;;;;;5021390;28;20174;-64
2022/03/11 09:25:46;;;;;;;2.80;2.03;;;4.50;50.70;;;;;;5004929;28;20192;-65
2022/03/11 09:28:12;;;;;;;8.00;3.53;;;4.60;50.50;;;;;;4997700;28;20265;-66
2022/03/11 09:30:37;;;;;;;15.23;3.57;;;4.60;50.10;;;;;;5014851;28;20173;-64
2022/03/11 09:33:03;;;;;;;4.73;2.80;;;4.50;49.90;;;;;;5013902;28;20166;-65
2022/03/11 09:35:29;;;;;;;6.73;3.60;;;4.70;49.90;;;;;;5013537;28;20198;-65
2022/03/11 09:37:54;;;;;;;4.90;3.20;;;4.80;49.60;;;;;;5014000;28;20179;-63
2022/03/11 09:40:20;;;;;;;6.80;3.60;;;4.60;49.30;;;;;;5014037;28;20249;-66
2022/03/11 09:42:46;;;;;;;9.63;4.03;;;4.90;49.40;;;;;;5013993;28;20166;-65
2022/03/11 09:45:12;;;;;;;7.13;3.77;;;5.00;49.20;;;;;;5013920;28;20574;-65
2022/03/11 09:47:39;;;;;;;6.77;3.37;;;5.10;48.00;;;;;;5013652;28;20259;-64
2022/03/11 09:50:06;;;;;;;4.17;3.27;;;5.20;47.20;;;;;;5014166;28;20162;-63
2022/03/11 09:52:33;;;;;;;4.43;2.67;;;5.30;46.50;;;;;;5014063;28;20175;-67
2022/03/11 09:54:59;;;;;;;6.47;3.80;;;5.10;46.00;;;;;;4996245;28;20211;-63
2022/03/11 09:57:27;;;;;;;6.63;3.17;;;5.20;46.20;;;;;;5013918;28;20255;-63
2022/03/11 09:59:53;;;;;;;5.27;3.43;;;5.30;45.90;;;;;;5013931;28;20292;-65
2022/03/11 10:02:18;;;;;;;5.97;3.63;;;5.40;46.20;;;;;;4995654;28;20211;-63
2022/03/11 10:04:49;;;;;;;8.30;4.13;;;5.50;46.10;;;;;;5014210;28;20158;-63
2022/03/11 10:07:29;;;;;;;12.93;3.83;;;5.60;45.00;;;;;;5013821;28;20157;-64
2022/03/11 10:10:14;;;;;;;5.77;3.53;;;5.70;44.50;;;;;;5013253;28;20491;-64
2022/03/11 10:12:45;;;;;;;5.63;3.40;;;5.50;43.90;;;;;;4996137;28;20177;-64
2022/03/11 10:15:12;;;;;;;6.50;3.80;;;5.60;44.10;;;;;;5013205;28;20233;-64
2022/03/11 10:17:43;;;;;;;5.73;3.60;;;5.60;43.60;;;;;;5013669;28;20174;-66
2022/03/11 10:20:16;;;;;;;4.50;3.17;;;5.70;43.80;;;;;;5013723;28;20204;-65
2022/03/11 10:22:45;;;;;;;7.27;3.97;;;5.80;43.50;;;;;;5014111;28;20185;-66
2022/03/11 10:25:17;;;;;;;8.83;4.20;;;5.90;42.80;;;;;;5019034;28;20229;-65
2022/03/11 10:28:03;;;;;;;5.53;3.03;;;5.90;42.80;;;;;;5018331;28;20339;-65
2022/03/11 10:30:31;;;;;;;7.67;4.20;;;6.00;43.20;;;;;;5017482;28;20158;-69
2022/03/11 10:32:59;;;;;;;6.47;3.77;;;5.80;42.40;;;;;;5018376;28;20178;-66
2022/03/11 10:35:38;;;;;;;5.30;3.67;;;6.10;42.60;;;;;;5017576;28;20546;-64
2022/03/11 10:38:07;;;;;;;7.60;3.70;;;6.20;42.00;;;;;;5017949;28;20248;-63
2022/03/11 10:40:35;;;;;;;5.13;2.93;;;6.30;42.00;;;;;;5018306;28;20641;-64
2022/03/11 10:43:12;;;;;;;5.07;3.53;;;6.10;40.80;;;;;;5018336;28;20181;-65
2022/03/11 10:45:47;;;;;;;6.70;4.23;;;6.30;40.90;;;;;;5016821;28;20172;-64
2022/03/11 10:48:13;;;;;;;6.33;4.20;;;6.30;41.60;;;;;;5016238;28;20166;-64
2022/03/11 10:50:39;;;;;;;7.57;3.93;;;6.10;41.00;;;;;;5016923;28;20197;-64
2022/03/11 10:53:09;;;;;;;7.17;4.10;;;6.20;41.40;;;;;;5016455;28;20184;-64
2022/03/11 10:55:39;;;;;;;8.50;4.47;;;6.10;41.20;;;;;;5016776;28;20184;-63
2022/03/11 10:58:05;;;;;;;5.77;3.70;;;6.10;41.60;;;;;;5016288;28;20180;-64
2022/03/11 11:00:33;;;;;;;6.93;3.77;;;6.40;42.10;;;;;;5015605;28;20216;-63
2022/03/11 11:03:01;;;;;;;9.53;4.00;;;6.40;41.60;;;;;;5016968;28;20162;-65
2022/03/11 11:05:28;;;;;;;12.43;4.27;;;6.50;41.50;;;;;;5016199;28;20168;-63
2022/03/11 11:07:54;;;;;;;7.90;4.23;;;6.40;41.10;;;;;;5016171;28;20196;-63
2022/03/11 11:10:22;;;;;;;5.90;3.47;;;6.40;41.10;;;;;;5016603;28;20164;-63
2022/03/11 11:12:49;;;;;;;7.93;4.23;;;6.50;41.60;;;;;;5015908;28;20216;-65
2022/03/11 11:15:15;;;;;;;6.90;4.37;;;6.70;42.20;;;;;;5015761;28;20169;-64
2022/03/11 11:17:43;;;;;;;7.23;4.03;;;6.70;41.70;;;;;;5015970;28;20161;-63
2022/03/11 11:20:38;;;;;;;7.47;4.30;;;6.70;41.40;;;;;;5016011;28;20196;-64
2022/03/11 11:23:05;;;;;;;9.33;4.40;;;6.60;41.00;;;;;;5016133;28;20257;-69
2022/03/11 11:25:33;;;;;;;6.20;3.73;;;6.60;41.00;;;;;;5015972;28;20611;-64
2022/03/11 11:28:03;;;;;;;9.40;4.00;;;6.70;41.10;;;;;;5015856;28;20594;-65
2022/03/11 11:30:30;;;;;;;7.23;4.03;;;6.70;40.50;;;;;;5015760;28;20217;-64
2022/03/11 11:32:58;;;;;;;8.57;4.83;;;6.80;41.40;;;;;;5015616;28;20510;-65
2022/03/11 11:35:37;;;;;;;7.37;4.33;;;6.80;41.80;;;;;;5016202;28;20162;-64
2022/03/11 11:38:05;;;;;;;9.43;3.80;;;7.00;40.60;;;;;;5018012;28;20166;-62
2022/03/11 11:40:36;;;;;;;7.87;4.17;;;7.10;40.70;;;;;;5022504;28;20199;-64
2022/03/11 11:43:14;;;;;;;6.30;4.20;;;7.10;41.40;;;;;;5022469;28;20158;-63
2022/03/11 11:45:47;;;;;;;6.07;3.90;;;7.10;40.80;;;;;;5023501;28;20223;-63
2022/03/11 11:48:42;;;;;;;7.00;4.00;;;7.20;40.30;;;;;;5023940;28;20199;-62
2022/03/11 11:51:13;;;;;;;6.27;3.70;;;7.30;40.10;;;;;;5015655;28;20611;-64
2022/03/11 11:53:53;;;;;;;7.63;4.00;;;7.40;40.10;;;;;;5015048;28;20168;-63
2022/03/11 11:56:31;;;;;;;9.10;4.33;;;7.40;39.20;;;;;;5014824;28;20181;-62
2022/03/11 11:58:58;;;;;;;6.67;4.33;;;7.30;40.20;;;;;;5015106;28;20365;-63
2022/03/11 12:01:39;;;;;;;8.23;4.77;;;7.30;40.70;;;;;;5015407;28;20173;-64
2022/03/11 12:04:28;;;;;;;9.57;4.83;;;7.10;40.60;;;;;;5015577;28;20291;-63
2022/03/11 12:07:13;;;;;;;9.07;4.80;;;7.10;40.80;;;;;;5015125;28;20159;-63
2022/03/11 12:09:50;;;;;;;7.60;4.70;;;7.40;41.00;;;;;;5016946;28;20158;-63
2022/03/11 12:12:19;;;;;;;12.03;4.90;;;7.20;40.40;;;;;;5014471;28;20596;-64
2022/03/11 12:15:06;;;;;;;8.57;4.40;;;7.40;40.70;;;;;;5014448;28;20170;-62
2022/03/11 12:17:50;;;;;;;8.70;5.13;;;7.40;40.00;;;;;;5014716;28;20167;-63
2022/03/11 12:20:26;;;;;;;5.97;4.10;;;7.40;39.50;;;;;;5014835;28;20261;-64
2022/03/11 12:22:52;;;;;;;8.00;4.90;;;7.30;39.90;;;;;;5014089;28;20554;-63
2022/03/11 12:25:22;;;;;;;7.47;4.17;;;7.30;40.40;;;;;;5014825;28;20178;-63
2022/03/11 12:28:07;;;;;;;8.90;4.23;;;7.30;40.50;;;;;;5014542;28;20312;-63
2022/03/11 12:30:40;;;;;;;8.07;4.43;;;7.60;40.80;;;;;;5014549;28;20169;-63
2022/03/11 12:33:14;;;;;;;7.03;4.67;;;7.70;40.60;;;;;;5014673;28;20196;-64
2022/03/11 12:35:40;;;;;;;7.47;4.67;;;7.40;40.00;;;;;;5014968;28;20559;-64
2022/03/11 12:38:14;;;;;;;7.90;4.33;;;7.50;40.30;;;;;;5014468;28;20189;-64
2022/03/11 12:40:41;;;;;;;7.50;4.20;;;7.50;39.80;;;;;;5014051;28;20718;-63
2022/03/11 12:43:09;;;;;;;5.87;4.10;;;7.60;39.90;;;;;;5014092;28;20284;-63
2022/03/11 12:45:55;;;;;;;10.37;4.50;;;7.50;39.60;;;;;;5015948;28;20219;-75
2022/03/11 12:48:29;;;;;;;20.03;7.10;;;7.80;41.50;;;;;;4998670;28;20555;-65
2022/03/11 12:50:56;;;;;;;19.93;9.20;;;8.50;44.40;;;;;;5013621;28;20165;-64
2022/03/11 12:53:23;;;;;;;13.53;8.83;;;8.00;39.60;;;;;;5013815;28;20189;-65
2022/03/11 12:55:50;;;;;;;12.40;5.10;;;7.80;39.50;;;;;;5014512;28;20175;-65
2022/03/11 12:58:28;;;;;;;11.50;5.43;;;7.80;39.70;;;;;;5014255;28;20192;-65